sensor_id;sensor_type;location;lat;lon;timestamp;P1;durP1;ratioP1;P2;durP2;ratioP2
3083;SDS011;1552;51.952;7.618;2023-05-07T00:01:39;8.95;;;6.07;;
3083;SDS011;1552;51.952;7.618;2023-05-07T00:04:05;9.48;;;6.28;;
3083;SDS011;1552;51.952;7.618;2023-05-07T00:06:32;9.55;;;6.07;;
3083;SDS011;1552;51.952;7.618;2023-05-07T00:08:58;7.60;;;5.90;;
3083;SDS011;1552;51.952;7.618;2023-05-07T00:11:27;7.18;;;5.82;;
3083;SDS011;1552;51.952;7.618;2023-05-07T00:13:53;8.15;;;6.55;;
3083;SDS011;1552;51.952;7.618;2023-05-07T00:16:19;9.13;;;6.35;;
3083;SDS011;1552;51.952;7.618;2023-05-07T00:18:46;10.18;;;7.28;;
3083;SDS011;1552;51.952;7.618;2023-05-07T00:21:12;7.63;;;5.53;;
3083;SDS011;1552;51.952;7.618;2023-05-07T00:23:39;10.00;;;6.30;;
3083;SDS011;1552;51.952;7.618;2023-05-07T00:26:05;9.38;;;6.43;;
3083;SDS011;1552;51.952;7.618;2023-05-07T00:28:33;7.78;;;5.65;;
3083;SDS011;1552;51.952;7.618;2023-05-07T00:30:59;8.73;;;6.40;;
3083;SDS011;1552;51.952;7.618;2023-05-07T00:33:25;11.18;;;6.68;;
3083;SDS011;1552;51.952;7.618;2023-05-07T00:35:52;9.03;;;6.80;;
3083;SDS011;1552;51.952;7.618;2023-05-07T00:38:19;10.38;;;6.50;;
3083;SDS011;1552;51.952;7.618;2023-05-07T00:40:45;8.37;;;6.70;;
3083;SDS011;1552;51.952;7.618;2023-05-07T00:43:11;11.15;;;7.00;;
3083;SDS011;1552;51.952;7.618;2023-05-07T00:45:39;8.27;;;5.70;;
3083;SDS011;1552;51.952;7.618;2023-05-07T00:48:06;10.82;;;7.28;;
3083;SDS011;1552;51.952;7.618;2023-05-07T00:50:32;8.80;;;6.35;;
3083;SDS011;1552;51.952;7.618;2023-05-07T00:52:58;8.13;;;5.90;;
3083;SDS011;1552;51.952;7.618;2023-05-07T00:55:25;10.65;;;7.10;;
3083;SDS011;1552;51.952;7.618;2023-05-07T00:57:51;9.30;;;6.20;;
3083;SDS011;1552;51.952;7.618;2023-05-07T01:00:18;10.30;;;7.17;;
3083;SDS011;1552;51.952;7.618;2023-05-07T01:02:46;11.50;;;7.63;;
3083;SDS011;1552;51.952;7.618;2023-05-07T01:05:13;10.00;;;7.20;;
3083;SDS011;1552;51.952;7.618;2023-05-07T01:07:40;8.20;;;6.55;;
3083;SDS011;1552;51.952;7.618;2023-05-07T01:10:08;9.73;;;7.35;;
3083;SDS011;1552;51.952;7.618;2023-05-07T01:12:35;7.33;;;6.40;;
3083;SDS011;1552;51.952;7.618;2023-05-07T01:15:03;12.15;;;8.65;;
3083;SDS011;1552;51.952;7.618;2023-05-07T01:17:30;12.05;;;8.52;;
3083;SDS011;1552;51.952;7.618;2023-05-07T01:20:00;11.65;;;7.70;;
3083;SDS011;1552;51.952;7.618;2023-05-07T01:22:29;12.25;;;8.20;;
3083;SDS011;1552;51.952;7.618;2023-05-07T01:24:57;11.03;;;7.57;;
3083;SDS011;1552;51.952;7.618;2023-05-07T01:27:24;11.63;;;8.30;;
3083;SDS011;1552;51.952;7.618;2023-05-07T01:29:50;12.57;;;8.87;;
3083;SDS011;1552;51.952;7.618;2023-05-07T01:32:17;15.40;;;9.33;;
3083;SDS011;1552;51.952;7.618;2023-05-07T01:34:44;11.13;;;8.00;;
3083;SDS011;1552;51.952;7.618;2023-05-07T01:37:12;13.02;;;9.60;;
3083;SDS011;1552;51.952;7.618;2023-05-07T01:39:40;13.93;;;10.35;;
3083;SDS011;1552;51.952;7.618;2023-05-07T01:42:07;14.20;;;11.93;;
3083;SDS011;1552;51.952;7.618;2023-05-07T01:44:33;14.00;;;11.07;;
3083;SDS011;1552;51.952;7.618;2023-05-07T01:46:59;14.83;;;10.47;;
3083;SDS011;1552;51.952;7.618;2023-05-07T01:49:27;15.37;;;10.93;;
3083;SDS011;1552;51.952;7.618;2023-05-07T01:51:53;13.50;;;10.37;;
3083;SDS011;1552;51.952;7.618;2023-05-07T01:54:24;15.23;;;11.50;;
3083;SDS011;1552;51.952;7.618;2023-05-07T01:56:54;15.63;;;11.53;;
3083;SDS011;1552;51.952;7.618;2023-05-07T01:59:21;16.70;;;12.30;;
3083;SDS011;1552;51.952;7.618;2023-05-07T02:01:47;15.87;;;12.40;;
3083;SDS011;1552;51.952;7.618;2023-05-07T02:04:13;19.00;;;12.20;;
3083;SDS011;1552;51.952;7.618;2023-05-07T02:06:40;15.93;;;12.00;;
3083;SDS011;1552;51.952;7.618;2023-05-07T02:09:06;19.53;;;14.13;;
3083;SDS011;1552;51.952;7.618;2023-05-07T02:11:33;18.03;;;14.17;;
3083;SDS011;1552;51.952;7.618;2023-05-07T02:14:01;19.60;;;13.90;;
3083;SDS011;1552;51.952;7.618;2023-05-07T02:16:27;20.37;;;14.07;;
3083;SDS011;1552;51.952;7.618;2023-05-07T02:18:54;21.07;;;14.93;;
3083;SDS011;1552;51.952;7.618;2023-05-07T02:21:21;25.33;;;16.88;;
3083;SDS011;1552;51.952;7.618;2023-05-07T02:23:47;22.83;;;16.97;;
3083;SDS011;1552;51.952;7.618;2023-05-07T02:26:14;20.83;;;15.50;;
3083;SDS011;1552;51.952;7.618;2023-05-07T02:28:40;20.13;;;14.60;;
3083;SDS011;1552;51.952;7.618;2023-05-07T02:31:08;25.53;;;17.73;;
3083;SDS011;1552;51.952;7.618;2023-05-07T02:33:34;26.27;;;16.50;;
3083;SDS011;1552;51.952;7.618;2023-05-07T02:36:08;25.30;;;18.43;;
3083;SDS011;1552;51.952;7.618;2023-05-07T02:38:34;23.63;;;16.40;;
3083;SDS011;1552;51.952;7.618;2023-05-07T02:41:01;24.07;;;17.57;;
3083;SDS011;1552;51.952;7.618;2023-05-07T02:43:27;22.97;;;17.83;;
3083;SDS011;1552;51.952;7.618;2023-05-07T02:46:00;24.40;;;18.07;;
3083;SDS011;1552;51.952;7.618;2023-05-07T02:48:27;24.50;;;17.83;;
3083;SDS011;1552;51.952;7.618;2023-05-07T02:50:54;26.20;;;17.30;;
3083;SDS011;1552;51.952;7.618;2023-05-07T02:53:20;22.93;;;16.77;;
3083;SDS011;1552;51.952;7.618;2023-05-07T02:55:47;25.10;;;17.70;;
3083;SDS011;1552;51.952;7.618;2023-05-07T02:58:13;26.27;;;18.17;;
3083;SDS011;1552;51.952;7.618;2023-05-07T03:00:39;26.13;;;18.17;;
3083;SDS011;1552;51.952;7.618;2023-05-07T03:03:06;24.57;;;17.80;;
3083;SDS011;1552;51.952;7.618;2023-05-07T03:05:33;22.57;;;16.23;;
3083;SDS011;1552;51.952;7.618;2023-05-07T03:08:00;27.80;;;19.07;;
3083;SDS011;1552;51.952;7.618;2023-05-07T03:10:26;22.60;;;17.87;;
3083;SDS011;1552;51.952;7.618;2023-05-07T03:12:52;22.97;;;17.03;;
3083;SDS011;1552;51.952;7.618;2023-05-07T03:15:19;25.47;;;17.80;;
3083;SDS011;1552;51.952;7.618;2023-05-07T03:17:45;26.87;;;17.70;;
3083;SDS011;1552;51.952;7.618;2023-05-07T03:20:11;29.47;;;19.13;;
3083;SDS011;1552;51.952;7.618;2023-05-07T03:22:39;23.63;;;17.23;;
3083;SDS011;1552;51.952;7.618;2023-05-07T03:25:06;26.90;;;17.80;;
3083;SDS011;1552;51.952;7.618;2023-05-07T03:27:33;24.93;;;18.03;;
3083;SDS011;1552;51.952;7.618;2023-05-07T03:29:59;25.60;;;18.50;;
3083;SDS011;1552;51.952;7.618;2023-05-07T03:32:25;20.93;;;16.57;;
3083;SDS011;1552;51.952;7.618;2023-05-07T03:34:52;22.87;;;17.53;;
3083;SDS011;1552;51.952;7.618;2023-05-07T03:37:18;24.93;;;16.43;;
3083;SDS011;1552;51.952;7.618;2023-05-07T03:39:46;27.87;;;17.90;;
3083;SDS011;1552;51.952;7.618;2023-05-07T03:42:12;24.17;;;17.90;;
3083;SDS011;1552;51.952;7.618;2023-05-07T03:44:39;23.43;;;16.87;;
3083;SDS011;1552;51.952;7.618;2023-05-07T03:47:05;24.60;;;17.13;;
3083;SDS011;1552;51.952;7.618;2023-05-07T03:49:31;22.87;;;17.37;;
3083;SDS011;1552;51.952;7.618;2023-05-07T03:51:58;27.20;;;19.77;;
3083;SDS011;1552;51.952;7.618;2023-05-07T03:54:24;27.27;;;18.27;;
3083;SDS011;1552;51.952;7.618;2023-05-07T03:56:52;23.73;;;18.30;;
3083;SDS011;1552;51.952;7.618;2023-05-07T03:59:18;26.80;;;18.17;;
3083;SDS011;1552;51.952;7.618;2023-05-07T04:01:44;26.40;;;19.00;;
3083;SDS011;1552;51.952;7.618;2023-05-07T04:04:11;27.77;;;18.03;;
3083;SDS011;1552;51.952;7.618;2023-05-07T04:06:37;26.37;;;19.03;;
3083;SDS011;1552;51.952;7.618;2023-05-07T04:09:04;28.40;;;19.43;;
3083;SDS011;1552;51.952;7.618;2023-05-07T04:11:30;28.70;;;19.23;;
3083;SDS011;1552;51.952;7.618;2023-05-07T04:13:57;27.47;;;18.93;;
3083;SDS011;1552;51.952;7.618;2023-05-07T04:16:24;26.77;;;18.53;;
3083;SDS011;1552;51.952;7.618;2023-05-07T04:18:50;27.30;;;16.93;;
3083;SDS011;1552;51.952;7.618;2023-05-07T04:21:17;22.77;;;17.27;;
3083;SDS011;1552;51.952;7.618;2023-05-07T04:23:44;28.40;;;18.93;;
3083;SDS011;1552;51.952;7.618;2023-05-07T04:26:10;24.37;;;18.67;;
3083;SDS011;1552;51.952;7.618;2023-05-07T04:28:37;25.10;;;19.03;;
3083;SDS011;1552;51.952;7.618;2023-05-07T04:31:05;26.13;;;17.87;;
3083;SDS011;1552;51.952;7.618;2023-05-07T04:33:32;24.57;;;17.93;;
3083;SDS011;1552;51.952;7.618;2023-05-07T04:36:01;26.53;;;18.70;;
3083;SDS011;1552;51.952;7.618;2023-05-07T04:38:29;23.77;;;16.93;;
3083;SDS011;1552;51.952;7.618;2023-05-07T04:40:55;25.00;;;17.93;;
3083;SDS011;1552;51.952;7.618;2023-05-07T04:43:22;26.63;;;19.40;;
3083;SDS011;1552;51.952;7.618;2023-05-07T04:45:49;25.63;;;18.40;;
3083;SDS011;1552;51.952;7.618;2023-05-07T04:48:17;27.27;;;19.43;;
3083;SDS011;1552;51.952;7.618;2023-05-07T04:50:44;25.67;;;18.07;;
3083;SDS011;1552;51.952;7.618;2023-05-07T04:53:10;26.47;;;18.43;;
3083;SDS011;1552;51.952;7.618;2023-05-07T04:55:36;24.17;;;16.03;;
3083;SDS011;1552;51.952;7.618;2023-05-07T04:58:03;23.37;;;18.00;;
3083;SDS011;1552;51.952;7.618;2023-05-07T05:00:29;28.33;;;19.10;;
3083;SDS011;1552;51.952;7.618;2023-05-07T05:02:56;27.23;;;20.47;;
3083;SDS011;1552;51.952;7.618;2023-05-07T05:05:24;26.43;;;20.10;;
3083;SDS011;1552;51.952;7.618;2023-05-07T05:07:50;28.47;;;19.57;;
3083;SDS011;1552;51.952;7.618;2023-05-07T05:10:18;28.13;;;19.57;;
3083;SDS011;1552;51.952;7.618;2023-05-07T05:12:44;27.60;;;18.97;;
3083;SDS011;1552;51.952;7.618;2023-05-07T05:15:11;28.57;;;19.93;;
3083;SDS011;1552;51.952;7.618;2023-05-07T05:17:37;25.33;;;19.10;;
3083;SDS011;1552;51.952;7.618;2023-05-07T05:20:04;31.90;;;20.73;;
3083;SDS011;1552;51.952;7.618;2023-05-07T05:22:32;28.17;;;19.70;;
3083;SDS011;1552;51.952;7.618;2023-05-07T05:24:59;23.67;;;19.03;;
3083;SDS011;1552;51.952;7.618;2023-05-07T05:27:25;24.77;;;17.63;;
3083;SDS011;1552;51.952;7.618;2023-05-07T05:29:52;26.50;;;18.93;;
3083;SDS011;1552;51.952;7.618;2023-05-07T05:32:18;26.53;;;20.07;;
3083;SDS011;1552;51.952;7.618;2023-05-07T05:34:44;27.60;;;19.90;;
3083;SDS011;1552;51.952;7.618;2023-05-07T05:37:11;26.10;;;19.30;;
3083;SDS011;1552;51.952;7.618;2023-05-07T05:39:38;26.40;;;19.37;;
3083;SDS011;1552;51.952;7.618;2023-05-07T05:42:05;25.03;;;18.07;;
3083;SDS011;1552;51.952;7.618;2023-05-07T05:44:31;24.53;;;17.87;;
3083;SDS011;1552;51.952;7.618;2023-05-07T05:46:58;26.37;;;19.27;;
3083;SDS011;1552;51.952;7.618;2023-05-07T05:49:24;28.33;;;19.03;;
3083;SDS011;1552;51.952;7.618;2023-05-07T05:51:50;25.50;;;18.10;;
3083;SDS011;1552;51.952;7.618;2023-05-07T05:54:17;25.33;;;18.50;;
3083;SDS011;1552;51.952;7.618;2023-05-07T05:56:44;22.73;;;17.00;;
3083;SDS011;1552;51.952;7.618;2023-05-07T05:59:11;24.70;;;17.93;;
3083;SDS011;1552;51.952;7.618;2023-05-07T06:01:37;21.47;;;15.97;;
3083;SDS011;1552;51.952;7.618;2023-05-07T06:04:03;24.17;;;18.90;;
3083;SDS011;1552;51.952;7.618;2023-05-07T06:06:30;26.37;;;18.30;;
3083;SDS011;1552;51.952;7.618;2023-05-07T06:08:57;27.77;;;19.40;;
3083;SDS011;1552;51.952;7.618;2023-05-07T06:11:23;25.07;;;18.83;;
3083;SDS011;1552;51.952;7.618;2023-05-07T06:13:51;29.10;;;18.67;;
3083;SDS011;1552;51.952;7.618;2023-05-07T06:16:18;27.10;;;18.70;;
3083;SDS011;1552;51.952;7.618;2023-05-07T06:18:44;25.03;;;17.50;;
3083;SDS011;1552;51.952;7.618;2023-05-07T06:21:11;25.93;;;19.07;;
3083;SDS011;1552;51.952;7.618;2023-05-07T06:23:38;24.77;;;18.00;;
3083;SDS011;1552;51.952;7.618;2023-05-07T06:26:05;29.07;;;19.67;;
3083;SDS011;1552;51.952;7.618;2023-05-07T06:28:32;25.87;;;18.53;;
3083;SDS011;1552;51.952;7.618;2023-05-07T06:31:11;27.10;;;18.57;;
3083;SDS011;1552;51.952;7.618;2023-05-07T06:33:38;25.90;;;18.70;;
3083;SDS011;1552;51.952;7.618;2023-05-07T06:36:05;30.17;;;20.27;;
3083;SDS011;1552;51.952;7.618;2023-05-07T06:38:31;26.37;;;18.50;;
3083;SDS011;1552;51.952;7.618;2023-05-07T06:40:58;25.30;;;18.37;;
3083;SDS011;1552;51.952;7.618;2023-05-07T06:43:24;28.93;;;19.33;;
3083;SDS011;1552;51.952;7.618;2023-05-07T06:45:50;31.07;;;19.93;;
3083;SDS011;1552;51.952;7.618;2023-05-07T06:48:18;27.80;;;20.33;;
3083;SDS011;1552;51.952;7.618;2023-05-07T06:50:45;29.33;;;19.40;;
3083;SDS011;1552;51.952;7.618;2023-05-07T06:53:11;29.93;;;19.80;;
3083;SDS011;1552;51.952;7.618;2023-05-07T06:55:37;28.33;;;19.27;;
3083;SDS011;1552;51.952;7.618;2023-05-07T06:58:04;28.00;;;18.50;;
3083;SDS011;1552;51.952;7.618;2023-05-07T07:00:31;29.97;;;19.47;;
3083;SDS011;1552;51.952;7.618;2023-05-07T07:02:57;27.90;;;19.23;;
3083;SDS011;1552;51.952;7.618;2023-05-07T07:05:25;26.00;;;18.17;;
3083;SDS011;1552;51.952;7.618;2023-05-07T07:07:52;33.00;;;20.53;;
3083;SDS011;1552;51.952;7.618;2023-05-07T07:10:18;24.73;;;18.60;;
3083;SDS011;1552;51.952;7.618;2023-05-07T07:12:45;28.00;;;19.53;;
3083;SDS011;1552;51.952;7.618;2023-05-07T07:15:12;30.70;;;19.77;;
3083;SDS011;1552;51.952;7.618;2023-05-07T07:17:39;28.20;;;19.93;;
3083;SDS011;1552;51.952;7.618;2023-05-07T07:20:06;30.30;;;20.20;;
3083;SDS011;1552;51.952;7.618;2023-05-07T07:22:34;30.00;;;21.00;;
3083;SDS011;1552;51.952;7.618;2023-05-07T07:25:00;29.50;;;20.93;;
3083;SDS011;1552;51.952;7.618;2023-05-07T07:27:26;28.48;;;20.38;;
3083;SDS011;1552;51.952;7.618;2023-05-07T07:29:53;25.55;;;18.40;;
3083;SDS011;1552;51.952;7.618;2023-05-07T07:32:19;25.45;;;18.27;;
3083;SDS011;1552;51.952;7.618;2023-05-07T07:34:45;27.67;;;18.73;;
3083;SDS011;1552;51.952;7.618;2023-05-07T07:37:12;30.00;;;20.02;;
3083;SDS011;1552;51.952;7.618;2023-05-07T07:39:39;29.47;;;20.43;;
3083;SDS011;1552;51.952;7.618;2023-05-07T07:42:06;30.77;;;20.60;;
3083;SDS011;1552;51.952;7.618;2023-05-07T07:44:32;25.30;;;19.02;;
3083;SDS011;1552;51.952;7.618;2023-05-07T07:46:58;27.27;;;18.92;;
3083;SDS011;1552;51.952;7.618;2023-05-07T07:49:25;26.65;;;18.88;;
3083;SDS011;1552;51.952;7.618;2023-05-07T07:51:51;27.55;;;18.85;;
3083;SDS011;1552;51.952;7.618;2023-05-07T07:54:17;30.08;;;20.15;;
3083;SDS011;1552;51.952;7.618;2023-05-07T07:56:45;29.67;;;18.75;;
3083;SDS011;1552;51.952;7.618;2023-05-07T07:59:11;30.48;;;20.40;;
3083;SDS011;1552;51.952;7.618;2023-05-07T08:01:38;28.92;;;20.02;;
3083;SDS011;1552;51.952;7.618;2023-05-07T08:04:05;26.40;;;18.25;;
3083;SDS011;1552;51.952;7.618;2023-05-07T08:06:31;28.05;;;19.45;;
3083;SDS011;1552;51.952;7.618;2023-05-07T08:08:57;29.77;;;20.33;;
3083;SDS011;1552;51.952;7.618;2023-05-07T08:11:24;28.52;;;19.15;;
3083;SDS011;1552;51.952;7.618;2023-05-07T08:13:51;26.88;;;19.27;;
3083;SDS011;1552;51.952;7.618;2023-05-07T08:16:18;27.55;;;19.90;;
3083;SDS011;1552;51.952;7.618;2023-05-07T08:18:44;27.65;;;19.50;;
3083;SDS011;1552;51.952;7.618;2023-05-07T08:21:10;28.27;;;19.60;;
3083;SDS011;1552;51.952;7.618;2023-05-07T08:23:37;30.15;;;19.95;;
3083;SDS011;1552;51.952;7.618;2023-05-07T08:26:03;28.92;;;19.65;;
3083;SDS011;1552;51.952;7.618;2023-05-07T08:28:30;26.58;;;19.55;;
3083;SDS011;1552;51.952;7.618;2023-05-07T08:30:57;27.15;;;18.67;;
3083;SDS011;1552;51.952;7.618;2023-05-07T08:33:25;30.85;;;19.92;;
3083;SDS011;1552;51.952;7.618;2023-05-07T08:35:51;27.77;;;18.25;;
3083;SDS011;1552;51.952;7.618;2023-05-07T08:38:18;25.85;;;18.80;;
3083;SDS011;1552;51.952;7.618;2023-05-07T08:40:44;26.20;;;18.85;;
3083;SDS011;1552;51.952;7.618;2023-05-07T08:43:12;27.98;;;18.75;;
3083;SDS011;1552;51.952;7.618;2023-05-07T08:45:39;28.98;;;18.52;;
3083;SDS011;1552;51.952;7.618;2023-05-07T08:48:08;26.10;;;18.05;;
3083;SDS011;1552;51.952;7.618;2023-05-07T08:50:35;27.63;;;18.60;;
3083;SDS011;1552;51.952;7.618;2023-05-07T08:53:02;23.75;;;17.52;;
3083;SDS011;1552;51.952;7.618;2023-05-07T08:55:28;25.15;;;18.90;;
3083;SDS011;1552;51.952;7.618;2023-05-07T08:57:54;24.00;;;17.30;;
3083;SDS011;1552;51.952;7.618;2023-05-07T09:00:21;26.27;;;18.60;;
3083;SDS011;1552;51.952;7.618;2023-05-07T09:02:47;24.85;;;18.35;;
3083;SDS011;1552;51.952;7.618;2023-05-07T09:05:15;25.55;;;19.98;;
3083;SDS011;1552;51.952;7.618;2023-05-07T09:07:41;24.48;;;18.33;;
3083;SDS011;1552;51.952;7.618;2023-05-07T09:10:08;23.98;;;17.17;;
3083;SDS011;1552;51.952;7.618;2023-05-07T09:12:34;26.45;;;17.25;;
3083;SDS011;1552;51.952;7.618;2023-05-07T09:15:01;25.13;;;17.85;;
3083;SDS011;1552;51.952;7.618;2023-05-07T09:17:27;26.65;;;19.40;;
3083;SDS011;1552;51.952;7.618;2023-05-07T09:19:54;24.35;;;18.13;;
3083;SDS011;1552;51.952;7.618;2023-05-07T09:22:22;23.40;;;17.50;;
3083;SDS011;1552;51.952;7.618;2023-05-07T09:24:48;25.42;;;17.45;;
3083;SDS011;1552;51.952;7.618;2023-05-07T09:27:15;26.80;;;18.10;;
3083;SDS011;1552;51.952;7.618;2023-05-07T09:29:41;23.77;;;17.15;;
3083;SDS011;1552;51.952;7.618;2023-05-07T09:32:09;27.20;;;16.70;;
3083;SDS011;1552;51.952;7.618;2023-05-07T09:34:36;22.50;;;16.02;;
3083;SDS011;1552;51.952;7.618;2023-05-07T09:37:03;23.98;;;16.52;;
3083;SDS011;1552;51.952;7.618;2023-05-07T09:39:39;23.90;;;16.92;;
3083;SDS011;1552;51.952;7.618;2023-05-07T09:42:06;21.42;;;15.68;;
3083;SDS011;1552;51.952;7.618;2023-05-07T09:44:33;23.95;;;16.13;;
3083;SDS011;1552;51.952;7.618;2023-05-07T09:47:00;21.75;;;16.13;;
3083;SDS011;1552;51.952;7.618;2023-05-07T09:49:28;23.98;;;16.75;;
3083;SDS011;1552;51.952;7.618;2023-05-07T09:51:55;22.88;;;16.15;;
3083;SDS011;1552;51.952;7.618;2023-05-07T09:54:22;21.40;;;14.80;;
3083;SDS011;1552;51.952;7.618;2023-05-07T09:56:50;24.95;;;16.92;;
3083;SDS011;1552;51.952;7.618;2023-05-07T09:59:17;25.02;;;17.95;;
3083;SDS011;1552;51.952;7.618;2023-05-07T10:01:44;21.92;;;16.77;;
3083;SDS011;1552;51.952;7.618;2023-05-07T10:04:11;22.33;;;16.52;;
3083;SDS011;1552;51.952;7.618;2023-05-07T10:06:38;25.88;;;16.38;;
3083;SDS011;1552;51.952;7.618;2023-05-07T10:09:05;20.67;;;16.35;;
3083;SDS011;1552;51.952;7.618;2023-05-07T10:11:31;21.95;;;15.55;;
3083;SDS011;1552;51.952;7.618;2023-05-07T10:13:59;24.83;;;16.63;;
3083;SDS011;1552;51.952;7.618;2023-05-07T10:16:27;22.50;;;15.25;;
3083;SDS011;1552;51.952;7.618;2023-05-07T10:18:53;20.80;;;15.02;;
3083;SDS011;1552;51.952;7.618;2023-05-07T10:21:20;20.65;;;15.60;;
3083;SDS011;1552;51.952;7.618;2023-05-07T10:23:49;22.17;;;15.88;;
3083;SDS011;1552;51.952;7.618;2023-05-07T10:26:15;20.38;;;14.63;;
3083;SDS011;1552;51.952;7.618;2023-05-07T10:28:44;21.40;;;16.50;;
3083;SDS011;1552;51.952;7.618;2023-05-07T10:31:18;20.67;;;14.77;;
3083;SDS011;1552;51.952;7.618;2023-05-07T10:33:49;18.20;;;13.95;;
3083;SDS011;1552;51.952;7.618;2023-05-07T10:36:16;20.33;;;13.48;;
3083;SDS011;1552;51.952;7.618;2023-05-07T10:38:43;19.50;;;14.02;;
3083;SDS011;1552;51.952;7.618;2023-05-07T10:41:09;17.60;;;14.15;;
3083;SDS011;1552;51.952;7.618;2023-05-07T10:43:40;19.70;;;13.73;;
3083;SDS011;1552;51.952;7.618;2023-05-07T10:46:11;18.48;;;13.05;;
3083;SDS011;1552;51.952;7.618;2023-05-07T10:51:20;16.23;;;12.80;;
3083;SDS011;1552;51.952;7.618;2023-05-07T10:53:47;16.17;;;12.38;;
3083;SDS011;1552;51.952;7.618;2023-05-07T10:56:25;15.40;;;11.20;;
3083;SDS011;1552;51.952;7.618;2023-05-07T10:58:55;14.43;;;11.88;;
3083;SDS011;1552;51.952;7.618;2023-05-07T11:04:13;14.52;;;11.98;;
3083;SDS011;1552;51.952;7.618;2023-05-07T11:06:41;16.40;;;12.20;;
3083;SDS011;1552;51.952;7.618;2023-05-07T11:09:07;18.00;;;13.68;;
3083;SDS011;1552;51.952;7.618;2023-05-07T11:11:46;15.63;;;11.63;;
3083;SDS011;1552;51.952;7.618;2023-05-07T11:14:13;13.75;;;11.90;;
3083;SDS011;1552;51.952;7.618;2023-05-07T11:16:39;14.52;;;10.75;;
3083;SDS011;1552;51.952;7.618;2023-05-07T11:19:06;15.07;;;11.73;;
3083;SDS011;1552;51.952;7.618;2023-05-07T11:21:36;15.75;;;12.25;;
3083;SDS011;1552;51.952;7.618;2023-05-07T11:24:04;16.05;;;11.90;;
3083;SDS011;1552;51.952;7.618;2023-05-07T11:26:32;16.85;;;12.52;;
3083;SDS011;1552;51.952;7.618;2023-05-07T11:29:10;17.45;;;13.43;;
3083;SDS011;1552;51.952;7.618;2023-05-07T11:31:36;16.08;;;10.70;;
3083;SDS011;1552;51.952;7.618;2023-05-07T11:34:03;14.40;;;10.35;;
3083;SDS011;1552;51.952;7.618;2023-05-07T11:36:30;11.77;;;9.57;;
3083;SDS011;1552;51.952;7.618;2023-05-07T11:38:56;13.40;;;10.73;;
3083;SDS011;1552;51.952;7.618;2023-05-07T11:41:32;14.40;;;11.70;;
3083;SDS011;1552;51.952;7.618;2023-05-07T11:43:59;11.45;;;9.32;;
3083;SDS011;1552;51.952;7.618;2023-05-07T11:46:26;13.10;;;10.25;;
3083;SDS011;1552;51.952;7.618;2023-05-07T11:48:53;12.25;;;9.75;;
3083;SDS011;1552;51.952;7.618;2023-05-07T11:51:19;13.75;;;10.13;;
3083;SDS011;1552;51.952;7.618;2023-05-07T11:53:46;15.88;;;9.77;;
3083;SDS011;1552;51.952;7.618;2023-05-07T11:56:13;12.15;;;9.15;;
3083;SDS011;1552;51.952;7.618;2023-05-07T11:58:41;12.68;;;9.55;;
3083;SDS011;1552;51.952;7.618;2023-05-07T12:01:09;11.18;;;8.65;;
3083;SDS011;1552;51.952;7.618;2023-05-07T12:03:35;12.70;;;9.48;;
3083;SDS011;1552;51.952;7.618;2023-05-07T12:06:02;11.43;;;7.57;;
3083;SDS011;1552;51.952;7.618;2023-05-07T12:08:29;11.02;;;7.88;;
3083;SDS011;1552;51.952;7.618;2023-05-07T12:10:55;9.38;;;7.18;;
3083;SDS011;1552;51.952;7.618;2023-05-07T12:13:22;9.55;;;7.10;;
3083;SDS011;1552;51.952;7.618;2023-05-07T12:15:51;11.82;;;7.93;;
3083;SDS011;1552;51.952;7.618;2023-05-07T12:18:18;11.13;;;8.27;;
3083;SDS011;1552;51.952;7.618;2023-05-07T12:20:44;8.77;;;7.40;;
3083;SDS011;1552;51.952;7.618;2023-05-07T12:23:11;9.75;;;8.40;;
3083;SDS011;1552;51.952;7.618;2023-05-07T12:25:38;11.38;;;8.90;;
3083;SDS011;1552;51.952;7.618;2023-05-07T12:28:04;10.77;;;7.93;;
3083;SDS011;1552;51.952;7.618;2023-05-07T12:30:31;9.15;;;7.50;;
3083;SDS011;1552;51.952;7.618;2023-05-07T12:32:59;9.98;;;7.40;;
3083;SDS011;1552;51.952;7.618;2023-05-07T12:35:26;10.10;;;7.55;;
3083;SDS011;1552;51.952;7.618;2023-05-07T12:37:54;9.90;;;7.95;;
3083;SDS011;1552;51.952;7.618;2023-05-07T12:40:21;11.25;;;8.48;;
3083;SDS011;1552;51.952;7.618;2023-05-07T12:42:47;12.77;;;9.23;;
3083;SDS011;1552;51.952;7.618;2023-05-07T12:45:18;9.38;;;7.20;;
3083;SDS011;1552;51.952;7.618;2023-05-07T12:47:45;9.85;;;6.97;;
3083;SDS011;1552;51.952;7.618;2023-05-07T12:50:13;8.02;;;7.03;;
3083;SDS011;1552;51.952;7.618;2023-05-07T12:52:40;10.60;;;7.80;;
3083;SDS011;1552;51.952;7.618;2023-05-07T12:55:07;10.10;;;7.90;;
3083;SDS011;1552;51.952;7.618;2023-05-07T12:57:37;9.50;;;7.82;;
3083;SDS011;1552;51.952;7.618;2023-05-07T13:00:04;11.02;;;7.03;;
3083;SDS011;1552;51.952;7.618;2023-05-07T13:02:32;9.23;;;7.85;;
3083;SDS011;1552;51.952;7.618;2023-05-07T13:04:58;10.32;;;7.68;;
3083;SDS011;1552;51.952;7.618;2023-05-07T13:07:26;9.93;;;7.72;;
3083;SDS011;1552;51.952;7.618;2023-05-07T13:09:52;10.15;;;7.68;;
3083;SDS011;1552;51.952;7.618;2023-05-07T13:12:18;9.85;;;7.93;;
3083;SDS011;1552;51.952;7.618;2023-05-07T13:14:45;9.10;;;7.63;;
3083;SDS011;1552;51.952;7.618;2023-05-07T13:17:11;10.52;;;7.53;;
3083;SDS011;1552;51.952;7.618;2023-05-07T13:19:37;10.73;;;7.57;;
3083;SDS011;1552;51.952;7.618;2023-05-07T13:22:04;9.85;;;7.90;;
3083;SDS011;1552;51.952;7.618;2023-05-07T13:24:31;11.48;;;8.38;;
3083;SDS011;1552;51.952;7.618;2023-05-07T13:26:58;12.32;;;8.82;;
3083;SDS011;1552;51.952;7.618;2023-05-07T13:29:24;10.15;;;7.95;;
3083;SDS011;1552;51.952;7.618;2023-05-07T13:31:54;10.35;;;8.35;;
3083;SDS011;1552;51.952;7.618;2023-05-07T13:34:21;11.63;;;8.48;;
3083;SDS011;1552;51.952;7.618;2023-05-07T13:36:47;13.10;;;8.85;;
3083;SDS011;1552;51.952;7.618;2023-05-07T13:39:14;10.70;;;8.43;;
3083;SDS011;1552;51.952;7.618;2023-05-07T13:41:41;10.38;;;8.15;;
3083;SDS011;1552;51.952;7.618;2023-05-07T13:44:08;10.60;;;8.23;;
3083;SDS011;1552;51.952;7.618;2023-05-07T13:46:34;10.95;;;8.07;;
3083;SDS011;1552;51.952;7.618;2023-05-07T13:49:01;10.15;;;8.05;;
3083;SDS011;1552;51.952;7.618;2023-05-07T13:51:27;10.52;;;8.23;;
3083;SDS011;1552;51.952;7.618;2023-05-07T13:53:53;9.05;;;7.47;;
3083;SDS011;1552;51.952;7.618;2023-05-07T13:56:20;9.45;;;7.63;;
3083;SDS011;1552;51.952;7.618;2023-05-07T13:58:48;9.57;;;7.50;;
3083;SDS011;1552;51.952;7.618;2023-05-07T14:01:14;8.50;;;7.38;;
3083;SDS011;1552;51.952;7.618;2023-05-07T14:03:40;10.45;;;7.53;;
3083;SDS011;1552;51.952;7.618;2023-05-07T14:06:07;8.68;;;6.55;;
3083;SDS011;1552;51.952;7.618;2023-05-07T14:08:33;8.80;;;6.72;;
3083;SDS011;1552;51.952;7.618;2023-05-07T14:10:59;7.80;;;6.68;;
3083;SDS011;1552;51.952;7.618;2023-05-07T14:13:26;6.35;;;5.60;;
3083;SDS011;1552;51.952;7.618;2023-05-07T14:15:53;9.15;;;7.28;;
3083;SDS011;1552;51.952;7.618;2023-05-07T14:18:20;9.32;;;7.07;;
3083;SDS011;1552;51.952;7.618;2023-05-07T14:20:46;9.98;;;6.95;;
3083;SDS011;1552;51.952;7.618;2023-05-07T14:23:13;9.43;;;7.38;;
3083;SDS011;1552;51.952;7.618;2023-05-07T14:25:40;7.32;;;6.53;;
3083;SDS011;1552;51.952;7.618;2023-05-07T14:28:08;11.75;;;7.68;;
3083;SDS011;1552;51.952;7.618;2023-05-07T14:30:34;9.77;;;6.85;;
3083;SDS011;1552;51.952;7.618;2023-05-07T14:33:02;9.07;;;7.07;;
3083;SDS011;1552;51.952;7.618;2023-05-07T14:35:28;8.15;;;6.88;;
3083;SDS011;1552;51.952;7.618;2023-05-07T14:37:55;9.15;;;7.28;;
3083;SDS011;1552;51.952;7.618;2023-05-07T14:40:21;7.70;;;6.78;;
3083;SDS011;1552;51.952;7.618;2023-05-07T14:42:47;9.00;;;6.07;;
3083;SDS011;1552;51.952;7.618;2023-05-07T14:45:14;8.40;;;6.45;;
3083;SDS011;1552;51.952;7.618;2023-05-07T14:47:40;10.85;;;7.72;;
3083;SDS011;1552;51.952;7.618;2023-05-07T14:50:08;8.25;;;6.25;;
3083;SDS011;1552;51.952;7.618;2023-05-07T14:52:35;11.10;;;7.50;;
3083;SDS011;1552;51.952;7.618;2023-05-07T14:55:01;9.68;;;6.85;;
3083;SDS011;1552;51.952;7.618;2023-05-07T14:57:28;9.15;;;6.05;;
3083;SDS011;1552;51.952;7.618;2023-05-07T14:59:54;7.75;;;6.13;;